sensor_id;sensor_type;location;lat;lon;timestamp;P1;durP1;ratioP1;P2;durP2;ratioP2
37907;SDS011;23740;51.550;6.846;2022-11-20T00:01:35;5.45;;;2.95;;
37907;SDS011;23740;51.550;6.846;2022-11-20T00:04:00;5.63;;;3.28;;
37907;SDS011;23740;51.550;6.846;2022-11-20T00:06:26;4.53;;;3.20;;
37907;SDS011;23740;51.550;6.846;2022-11-20T00:08:54;4.05;;;3.13;;
37907;SDS011;23740;51.550;6.846;2022-11-20T00:11:22;3.63;;;2.92;;
37907;SDS011;23740;51.550;6.846;2022-11-20T00:13:50;4.88;;;3.72;;
37907;SDS011;23740;51.550;6.846;2022-11-20T00:16:19;5.63;;;3.28;;
37907;SDS011;23740;51.550;6.846;2022-11-20T00:21:13;4.43;;;3.25;;
37907;SDS011;23740;51.550;6.846;2022-11-20T00:23:40;4.10;;;2.90;;
37907;SDS011;23740;51.550;6.846;2022-11-20T00:26:07;4.28;;;2.92;;
37907;SDS011;23740;51.550;6.846;2022-11-20T00:28:33;4.88;;;3.13;;
37907;SDS011;23740;51.550;6.846;2022-11-20T00:31:09;5.70;;;3.30;;
37907;SDS011;23740;51.550;6.846;2022-11-20T00:33:36;4.32;;;2.85;;
37907;SDS011;23740;51.550;6.846;2022-11-20T00:36:05;4.68;;;3.25;;
37907;SDS011;23740;51.550;6.846;2022-11-20T00:38:32;4.35;;;3.47;;
37907;SDS011;23740;51.550;6.846;2022-11-20T00:40:59;4.45;;;3.08;;
37907;SDS011;23740;51.550;6.846;2022-11-20T00:43:26;4.45;;;3.17;;
37907;SDS011;23740;51.550;6.846;2022-11-20T00:48:27;3.80;;;2.72;;
37907;SDS011;23740;51.550;6.846;2022-11-20T00:50:52;5.20;;;3.58;;
37907;SDS011;23740;51.550;6.846;2022-11-20T00:53:18;3.42;;;2.90;;
37907;SDS011;23740;51.550;6.846;2022-11-20T00:55:51;4.68;;;3.25;;
37907;SDS011;23740;51.550;6.846;2022-11-20T00:58:19;3.63;;;2.50;;
37907;SDS011;23740;51.550;6.846;2022-11-20T01:00:45;5.45;;;3.15;;
37907;SDS011;23740;51.550;6.846;2022-11-20T01:03:10;3.70;;;3.15;;
37907;SDS011;23740;51.550;6.846;2022-11-20T01:05:36;4.28;;;3.00;;
37907;SDS011;23740;51.550;6.846;2022-11-20T01:08:01;6.28;;;2.95;;
37907;SDS011;23740;51.550;6.846;2022-11-20T01:10:26;4.13;;;2.85;;
37907;SDS011;23740;51.550;6.846;2022-11-20T01:12:52;4.07;;;3.10;;
37907;SDS011;23740;51.550;6.846;2022-11-20T01:15:37;5.25;;;3.35;;
37907;SDS011;23740;51.550;6.846;2022-11-20T01:18:02;3.72;;;3.05;;
37907;SDS011;23740;51.550;6.846;2022-11-20T01:20:28;4.50;;;2.90;;
37907;SDS011;23740;51.550;6.846;2022-11-20T01:22:53;4.28;;;2.80;;
37907;SDS011;23740;51.550;6.846;2022-11-20T01:25:18;4.97;;;3.25;;
37907;SDS011;23740;51.550;6.846;2022-11-20T01:27:44;4.32;;;3.05;;
37907;SDS011;23740;51.550;6.846;2022-11-20T01:30:09;4.18;;;2.90;;
37907;SDS011;23740;51.550;6.846;2022-11-20T01:32:35;4.07;;;3.08;;
37907;SDS011;23740;51.550;6.846;2022-11-20T01:35:00;4.45;;;3.05;;
37907;SDS011;23740;51.550;6.846;2022-11-20T01:37:26;3.33;;;2.67;;
37907;SDS011;23740;51.550;6.846;2022-11-20T01:39:51;3.70;;;2.83;;
37907;SDS011;23740;51.550;6.846;2022-11-20T01:42:16;4.35;;;2.97;;
37907;SDS011;23740;51.550;6.846;2022-11-20T01:45:00;4.80;;;3.35;;
37907;SDS011;23740;51.550;6.846;2022-11-20T01:52:42;3.85;;;3.05;;
37907;SDS011;23740;51.550;6.846;2022-11-20T01:55:13;4.07;;;3.25;;
37907;SDS011;23740;51.550;6.846;2022-11-20T01:57:41;4.72;;;3.20;;
37907;SDS011;23740;51.550;6.846;2022-11-20T02:00:10;4.05;;;3.08;;
37907;SDS011;23740;51.550;6.846;2022-11-20T02:02:37;3.70;;;2.90;;
37907;SDS011;23740;51.550;6.846;2022-11-20T02:07:59;5.18;;;3.10;;
37907;SDS011;23740;51.550;6.846;2022-11-20T02:10:26;3.75;;;2.88;;
37907;SDS011;23740;51.550;6.846;2022-11-20T02:12:52;3.88;;;2.83;;
37907;SDS011;23740;51.550;6.846;2022-11-20T02:15:36;4.15;;;2.88;;
37907;SDS011;23740;51.550;6.846;2022-11-20T02:18:02;4.22;;;2.97;;
37907;SDS011;23740;51.550;6.846;2022-11-20T02:20:27;5.00;;;3.20;;
37907;SDS011;23740;51.550;6.846;2022-11-20T02:25:18;3.40;;;2.90;;
37907;SDS011;23740;51.550;6.846;2022-11-20T02:27:44;4.28;;;3.15;;
37907;SDS011;23740;51.550;6.846;2022-11-20T02:30:10;4.57;;;3.20;;
37907;SDS011;23740;51.550;6.846;2022-11-20T02:32:36;4.30;;;3.15;;
37907;SDS011;23740;51.550;6.846;2022-11-20T02:35:08;4.00;;;3.08;;
37907;SDS011;23740;51.550;6.846;2022-11-20T02:37:36;3.55;;;3.00;;
37907;SDS011;23740;51.550;6.846;2022-11-20T02:40:03;3.90;;;2.90;;
37907;SDS011;23740;51.550;6.846;2022-11-20T02:42:29;4.15;;;3.13;;
37907;SDS011;23740;51.550;6.846;2022-11-20T02:44:54;4.15;;;3.00;;
37907;SDS011;23740;51.550;6.846;2022-11-20T02:47:20;4.80;;;3.67;;
37907;SDS011;23740;51.550;6.846;2022-11-20T02:49:45;5.45;;;3.58;;
37907;SDS011;23740;51.550;6.846;2022-11-20T02:52:10;5.32;;;3.40;;
37907;SDS011;23740;51.550;6.846;2022-11-20T02:54:36;4.07;;;3.05;;
37907;SDS011;23740;51.550;6.846;2022-11-20T02:57:01;5.72;;;3.63;;
37907;SDS011;23740;51.550;6.846;2022-11-20T02:59:26;5.00;;;3.33;;
37907;SDS011;23740;51.550;6.846;2022-11-20T03:01:52;4.22;;;3.22;;
37907;SDS011;23740;51.550;6.846;2022-11-20T03:04:17;5.40;;;3.50;;
37907;SDS011;23740;51.550;6.846;2022-11-20T03:06:42;3.90;;;2.67;;
37907;SDS011;23740;51.550;6.846;2022-11-20T03:09:08;5.40;;;3.45;;
37907;SDS011;23740;51.550;6.846;2022-11-20T03:11:34;4.70;;;2.92;;
37907;SDS011;23740;51.550;6.846;2022-11-20T03:14:03;4.07;;;3.35;;
37907;SDS011;23740;51.550;6.846;2022-11-20T03:16:30;6.30;;;3.10;;
37907;SDS011;23740;51.550;6.846;2022-11-20T03:18:56;3.22;;;2.58;;
37907;SDS011;23740;51.550;6.846;2022-11-20T03:21:21;5.60;;;3.40;;
37907;SDS011;23740;51.550;6.846;2022-11-20T03:23:46;4.65;;;3.20;;
37907;SDS011;23740;51.550;6.846;2022-11-20T03:28:46;4.07;;;3.22;;
37907;SDS011;23740;51.550;6.846;2022-11-20T03:31:14;6.47;;;4.18;;
37907;SDS011;23740;51.550;6.846;2022-11-20T03:33:41;3.88;;;2.97;;
37907;SDS011;23740;51.550;6.846;2022-11-20T03:36:08;5.60;;;3.60;;
37907;SDS011;23740;51.550;6.846;2022-11-20T03:38:35;5.82;;;3.38;;
37907;SDS011;23740;51.550;6.846;2022-11-20T03:41:02;4.55;;;2.95;;
37907;SDS011;23740;51.550;6.846;2022-11-20T03:43:29;4.28;;;2.90;;
37907;SDS011;23740;51.550;6.846;2022-11-20T03:45:54;4.38;;;3.22;;
37907;SDS011;23740;51.550;6.846;2022-11-20T03:48:20;4.07;;;3.17;;
37907;SDS011;23740;51.550;6.846;2022-11-20T03:50:45;3.80;;;2.95;;
37907;SDS011;23740;51.550;6.846;2022-11-20T03:53:12;4.45;;;3.20;;
37907;SDS011;23740;51.550;6.846;2022-11-20T03:55:40;4.72;;;3.42;;
37907;SDS011;23740;51.550;6.846;2022-11-20T03:58:06;4.25;;;3.50;;
37907;SDS011;23740;51.550;6.846;2022-11-20T04:00:31;4.10;;;2.85;;
37907;SDS011;23740;51.550;6.846;2022-11-20T04:03:00;4.13;;;3.38;;
37907;SDS011;23740;51.550;6.846;2022-11-20T04:05:26;5.30;;;3.75;;
37907;SDS011;23740;51.550;6.846;2022-11-20T04:07:52;5.43;;;3.25;;
37907;SDS011;23740;51.550;6.846;2022-11-20T04:10:17;3.88;;;3.15;;
37907;SDS011;23740;51.550;6.846;2022-11-20T04:12:43;4.95;;;3.67;;
37907;SDS011;23740;51.550;6.846;2022-11-20T04:15:08;4.25;;;3.42;;
37907;SDS011;23740;51.550;6.846;2022-11-20T04:17:34;4.70;;;3.15;;
37907;SDS011;23740;51.550;6.846;2022-11-20T04:19:59;4.03;;;3.22;;
37907;SDS011;23740;51.550;6.846;2022-11-20T04:22:25;6.30;;;3.53;;
37907;SDS011;23740;51.550;6.846;2022-11-20T04:24:50;4.57;;;3.13;;
37907;SDS011;23740;51.550;6.846;2022-11-20T04:27:15;5.18;;;3.17;;
37907;SDS011;23740;51.550;6.846;2022-11-20T04:29:41;4.22;;;3.25;;
37907;SDS011;23740;51.550;6.846;2022-11-20T04:32:06;3.80;;;3.22;;
37907;SDS011;23740;51.550;6.846;2022-11-20T04:34:32;4.93;;;3.35;;
37907;SDS011;23740;51.550;6.846;2022-11-20T04:36:57;4.65;;;3.45;;
37907;SDS011;23740;51.550;6.846;2022-11-20T04:39:23;5.45;;;3.67;;
37907;SDS011;23740;51.550;6.846;2022-11-20T04:41:48;5.15;;;3.30;;
37907;SDS011;23740;51.550;6.846;2022-11-20T04:44:33;3.90;;;3.13;;
37907;SDS011;23740;51.550;6.846;2022-11-20T04:46:59;4.47;;;3.25;;
37907;SDS011;23740;51.550;6.846;2022-11-20T04:49:24;3.97;;;3.10;;
37907;SDS011;23740;51.550;6.846;2022-11-20T04:51:52;4.72;;;3.25;;
37907;SDS011;23740;51.550;6.846;2022-11-20T04:54:18;4.18;;;3.38;;
37907;SDS011;23740;51.550;6.846;2022-11-20T04:56:47;4.30;;;3.15;;
37907;SDS011;23740;51.550;6.846;2022-11-20T04:59:12;4.28;;;3.20;;
37907;SDS011;23740;51.550;6.846;2022-11-20T05:01:38;5.25;;;3.35;;
37907;SDS011;23740;51.550;6.846;2022-11-20T05:04:03;4.70;;;3.15;;
37907;SDS011;23740;51.550;6.846;2022-11-20T05:06:28;4.13;;;3.00;;
37907;SDS011;23740;51.550;6.846;2022-11-20T05:08:54;5.80;;;3.35;;
37907;SDS011;23740;51.550;6.846;2022-11-20T05:11:19;5.47;;;3.65;;
37907;SDS011;23740;51.550;6.846;2022-11-20T05:13:45;4.78;;;3.30;;
37907;SDS011;23740;51.550;6.846;2022-11-20T05:16:12;3.80;;;3.28;;
37907;SDS011;23740;51.550;6.846;2022-11-20T05:18:42;4.40;;;3.30;;
37907;SDS011;23740;51.550;6.846;2022-11-20T05:21:08;5.00;;;3.20;;
37907;SDS011;23740;51.550;6.846;2022-11-20T05:23:35;4.53;;;3.70;;
37907;SDS011;23740;51.550;6.846;2022-11-20T05:26:00;4.28;;;3.30;;
37907;SDS011;23740;51.550;6.846;2022-11-20T05:28:27;4.78;;;3.60;;
37907;SDS011;23740;51.550;6.846;2022-11-20T05:30:53;5.03;;;3.25;;
37907;SDS011;23740;51.550;6.846;2022-11-20T05:33:18;4.53;;;3.28;;
37907;SDS011;23740;51.550;6.846;2022-11-20T05:35:44;3.95;;;3.17;;
37907;SDS011;23740;51.550;6.846;2022-11-20T05:38:09;4.28;;;3.20;;
37907;SDS011;23740;51.550;6.846;2022-11-20T05:40:35;5.63;;;3.33;;
37907;SDS011;23740;51.550;6.846;2022-11-20T05:43:00;5.18;;;3.53;;
37907;SDS011;23740;51.550;6.846;2022-11-20T05:45:26;4.68;;;3.47;;
37907;SDS011;23740;51.550;6.846;2022-11-20T05:47:51;4.78;;;3.47;;
37907;SDS011;23740;51.550;6.846;2022-11-20T05:50:17;4.50;;;3.20;;
37907;SDS011;23740;51.550;6.846;2022-11-20T05:52:42;4.35;;;3.53;;
37907;SDS011;23740;51.550;6.846;2022-11-20T05:55:07;4.47;;;3.40;;
37907;SDS011;23740;51.550;6.846;2022-11-20T05:57:33;3.97;;;3.17;;
37907;SDS011;23740;51.550;6.846;2022-11-20T05:59:58;4.05;;;3.10;;
37907;SDS011;23740;51.550;6.846;2022-11-20T06:02:24;4.03;;;3.13;;
37907;SDS011;23740;51.550;6.846;2022-11-20T06:04:49;4.22;;;2.90;;
37907;SDS011;23740;51.550;6.846;2022-11-20T06:07:14;3.78;;;3.08;;
37907;SDS011;23740;51.550;6.846;2022-11-20T06:09:40;4.60;;;3.20;;
37907;SDS011;23740;51.550;6.846;2022-11-20T06:12:05;4.82;;;3.67;;
37907;SDS011;23740;51.550;6.846;2022-11-20T06:14:31;3.83;;;3.17;;
37907;SDS011;23740;51.550;6.846;2022-11-20T06:16:57;4.93;;;3.20;;
37907;SDS011;23740;51.550;6.846;2022-11-20T06:19:22;4.80;;;3.25;;
37907;SDS011;23740;51.550;6.846;2022-11-20T06:21:48;5.13;;;3.42;;
37907;SDS011;23740;51.550;6.846;2022-11-20T06:24:14;3.97;;;2.88;;
37907;SDS011;23740;51.550;6.846;2022-11-20T06:26:39;4.60;;;3.63;;
37907;SDS011;23740;51.550;6.846;2022-11-20T06:29:05;4.00;;;3.03;;
37907;SDS011;23740;51.550;6.846;2022-11-20T06:31:30;4.80;;;3.58;;
37907;SDS011;23740;51.550;6.846;2022-11-20T06:33:59;6.43;;;3.60;;
37907;SDS011;23740;51.550;6.846;2022-11-20T06:36:25;4.40;;;3.58;;
37907;SDS011;23740;51.550;6.846;2022-11-20T06:38:51;4.95;;;3.38;;
37907;SDS011;23740;51.550;6.846;2022-11-20T06:41:17;4.97;;;3.35;;
37907;SDS011;23740;51.550;6.846;2022-11-20T06:43:44;3.72;;;3.00;;
37907;SDS011;23740;51.550;6.846;2022-11-20T06:46:30;4.32;;;3.13;;
37907;SDS011;23740;51.550;6.846;2022-11-20T06:48:56;4.22;;;3.53;;
37907;SDS011;23740;51.550;6.846;2022-11-20T06:51:21;4.95;;;3.70;;
37907;SDS011;23740;51.550;6.846;2022-11-20T06:53:47;4.20;;;3.08;;
37907;SDS011;23740;51.550;6.846;2022-11-20T06:56:12;4.93;;;3.45;;
37907;SDS011;23740;51.550;6.846;2022-11-20T06:58:38;5.10;;;3.60;;
37907;SDS011;23740;51.550;6.846;2022-11-20T07:01:07;4.80;;;3.38;;
37907;SDS011;23740;51.550;6.846;2022-11-20T07:03:34;4.25;;;3.40;;
37907;SDS011;23740;51.550;6.846;2022-11-20T07:06:00;5.55;;;3.50;;
37907;SDS011;23740;51.550;6.846;2022-11-20T07:08:26;4.70;;;3.50;;
37907;SDS011;23740;51.550;6.846;2022-11-20T07:10:52;5.00;;;3.17;;
37907;SDS011;23740;51.550;6.846;2022-11-20T07:13:17;4.15;;;3.28;;
37907;SDS011;23740;51.550;6.846;2022-11-20T07:15:42;4.47;;;3.50;;
37907;SDS011;23740;51.550;6.846;2022-11-20T07:18:08;4.85;;;3.60;;
37907;SDS011;23740;51.550;6.846;2022-11-20T07:20:33;4.30;;;3.22;;
37907;SDS011;23740;51.550;6.846;2022-11-20T07:22:58;4.45;;;3.13;;
37907;SDS011;23740;51.550;6.846;2022-11-20T07:25:24;4.47;;;3.13;;
37907;SDS011;23740;51.550;6.846;2022-11-20T07:27:50;5.55;;;3.35;;
37907;SDS011;23740;51.550;6.846;2022-11-20T07:30:16;3.67;;;2.92;;
37907;SDS011;23740;51.550;6.846;2022-11-20T07:32:42;4.18;;;3.25;;
37907;SDS011;23740;51.550;6.846;2022-11-20T07:35:07;5.78;;;3.70;;
37907;SDS011;23740;51.550;6.846;2022-11-20T07:37:36;5.13;;;3.50;;
37907;SDS011;23740;51.550;6.846;2022-11-20T07:40:01;4.38;;;3.20;;
37907;SDS011;23740;51.550;6.846;2022-11-20T07:42:27;6.28;;;3.38;;
37907;SDS011;23740;51.550;6.846;2022-11-20T07:44:52;7.38;;;3.22;;
37907;SDS011;23740;51.550;6.846;2022-11-20T07:47:17;5.40;;;3.33;;
37907;SDS011;23740;51.550;6.846;2022-11-20T07:49:43;4.88;;;3.55;;
37907;SDS011;23740;51.550;6.846;2022-11-20T07:52:08;4.57;;;3.33;;
37907;SDS011;23740;51.550;6.846;2022-11-20T07:54:33;4.18;;;3.22;;
37907;SDS011;23740;51.550;6.846;2022-11-20T07:56:59;4.90;;;3.78;;
37907;SDS011;23740;51.550;6.846;2022-11-20T07:59:24;5.50;;;3.50;;
37907;SDS011;23740;51.550;6.846;2022-11-20T08:01:50;8.15;;;3.28;;
37907;SDS011;23740;51.550;6.846;2022-11-20T08:04:15;4.10;;;3.30;;
37907;SDS011;23740;51.550;6.846;2022-11-20T08:06:41;4.78;;;3.47;;
37907;SDS011;23740;51.550;6.846;2022-11-20T08:09:06;4.72;;;3.65;;
37907;SDS011;23740;51.550;6.846;2022-11-20T08:11:32;3.60;;;3.20;;
37907;SDS011;23740;51.550;6.846;2022-11-20T08:14:16;4.70;;;3.55;;
37907;SDS011;23740;51.550;6.846;2022-11-20T08:16:43;6.95;;;3.70;;
37907;SDS011;23740;51.550;6.846;2022-11-20T08:19:09;5.07;;;3.50;;
37907;SDS011;23740;51.550;6.846;2022-11-20T08:21:35;5.25;;;3.20;;
37907;SDS011;23740;51.550;6.846;2022-11-20T08:24:00;5.85;;;3.95;;
37907;SDS011;23740;51.550;6.846;2022-11-20T08:26:26;5.38;;;3.55;;
37907;SDS011;23740;51.550;6.846;2022-11-20T08:28:57;4.47;;;3.28;;
37907;SDS011;23740;51.550;6.846;2022-11-20T08:31:24;5.45;;;3.78;;
37907;SDS011;23740;51.550;6.846;2022-11-20T08:33:50;7.20;;;4.70;;
37907;SDS011;23740;51.550;6.846;2022-11-20T08:36:16;8.80;;;4.55;;
37907;SDS011;23740;51.550;6.846;2022-11-20T08:38:42;6.13;;;4.50;;
37907;SDS011;23740;51.550;6.846;2022-11-20T08:41:07;6.97;;;4.57;;
37907;SDS011;23740;51.550;6.846;2022-11-20T08:43:52;6.05;;;4.40;;
37907;SDS011;23740;51.550;6.846;2022-11-20T08:46:23;5.78;;;4.07;;
37907;SDS011;23740;51.550;6.846;2022-11-20T08:48:49;4.95;;;3.70;;
37907;SDS011;23740;51.550;6.846;2022-11-20T08:51:15;5.03;;;4.00;;
37907;SDS011;23740;51.550;6.846;2022-11-20T08:53:41;7.45;;;3.90;;
37907;SDS011;23740;51.550;6.846;2022-11-20T08:56:06;6.10;;;4.18;;
37907;SDS011;23740;51.550;6.846;2022-11-20T08:58:32;7.32;;;3.97;;
37907;SDS011;23740;51.550;6.846;2022-11-20T09:00:57;5.13;;;3.88;;
37907;SDS011;23740;51.550;6.846;2022-11-20T09:03:23;9.25;;;3.67;;
37907;SDS011;23740;51.550;6.846;2022-11-20T09:05:48;5.57;;;3.70;;
37907;SDS011;23740;51.550;6.846;2022-11-20T09:08:14;4.65;;;3.70;;
37907;SDS011;23740;51.550;6.846;2022-11-20T09:10:39;6.22;;;4.07;;
37907;SDS011;23740;51.550;6.846;2022-11-20T09:13:05;4.75;;;3.30;;
37907;SDS011;23740;51.550;6.846;2022-11-20T09:15:30;6.38;;;3.65;;
37907;SDS011;23740;51.550;6.846;2022-11-20T09:17:57;5.97;;;3.67;;
37907;SDS011;23740;51.550;6.846;2022-11-20T09:20:24;5.80;;;3.58;;
37907;SDS011;23740;51.550;6.846;2022-11-20T09:22:50;5.78;;;3.60;;
37907;SDS011;23740;51.550;6.846;2022-11-20T09:25:15;5.43;;;3.97;;
37907;SDS011;23740;51.550;6.846;2022-11-20T09:27:41;4.75;;;3.60;;
37907;SDS011;23740;51.550;6.846;2022-11-20T09:30:08;7.05;;;4.53;;
37907;SDS011;23740;51.550;6.846;2022-11-20T09:32:34;9.05;;;6.15;;
37907;SDS011;23740;51.550;6.846;2022-11-20T09:35:00;9.00;;;7.07;;
37907;SDS011;23740;51.550;6.846;2022-11-20T09:37:26;12.70;;;8.82;;
37907;SDS011;23740;51.550;6.846;2022-11-20T09:39:51;12.88;;;7.68;;
37907;SDS011;23740;51.550;6.846;2022-11-20T09:42:20;11.52;;;7.22;;
37907;SDS011;23740;51.550;6.846;2022-11-20T09:55:15;9.18;;;6.57;;
37907;SDS011;23740;51.550;6.846;2022-11-20T09:57:41;10.38;;;6.70;;
37907;SDS011;23740;51.550;6.846;2022-11-20T10:00:12;9.30;;;7.63;;
37907;SDS011;23740;51.550;6.846;2022-11-20T10:08:17;9.55;;;6.65;;
37907;SDS011;23740;51.550;6.846;2022-11-20T10:10:46;15.23;;;7.40;;
37907;SDS011;23740;51.550;6.846;2022-11-20T10:29:29;13.43;;;9.35;;
37907;SDS011;23740;51.550;6.846;2022-11-20T10:32:07;12.63;;;8.35;;
37907;SDS011;23740;51.550;6.846;2022-11-20T10:34:47;12.57;;;9.60;;
37907;SDS011;23740;51.550;6.846;2022-11-20T10:37:18;12.25;;;8.65;;
37907;SDS011;23740;51.550;6.846;2022-11-20T10:39:52;10.43;;;8.23;;
37907;SDS011;23740;51.550;6.846;2022-11-20T10:42:26;10.95;;;8.60;;
37907;SDS011;23740;51.550;6.846;2022-11-20T10:44:58;13.40;;;8.65;;
37907;SDS011;23740;51.550;6.846;2022-11-20T10:47:30;10.85;;;7.82;;
37907;SDS011;23740;51.550;6.846;2022-11-20T10:49:57;11.73;;;8.05;;
37907;SDS011;23740;51.550;6.846;2022-11-20T11:00:11;11.20;;;8.68;;
37907;SDS011;23740;51.550;6.846;2022-11-20T11:12:59;10.90;;;7.28;;
37907;SDS011;23740;51.550;6.846;2022-11-20T11:15:38;15.15;;;8.65;;
37907;SDS011;23740;51.550;6.846;2022-11-20T11:18:05;12.75;;;8.02;;
37907;SDS011;23740;51.550;6.846;2022-11-20T11:20:49;9.20;;;7.47;;
37907;SDS011;23740;51.550;6.846;2022-11-20T11:25:56;9.85;;;7.55;;
37907;SDS011;23740;51.550;6.846;2022-11-20T11:28:23;8.93;;;7.25;;
37907;SDS011;23740;51.550;6.846;2022-11-20T11:30:51;9.73;;;7.28;;
37907;SDS011;23740;51.550;6.846;2022-11-20T11:36:16;10.30;;;7.03;;
37907;SDS011;23740;51.550;6.846;2022-11-20T11:38:44;8.55;;;6.90;;
37907;SDS011;23740;51.550;6.846;2022-11-20T11:41:15;11.10;;;7.07;;
37907;SDS011;23740;51.550;6.846;2022-11-20T11:43:49;9.85;;;6.93;;
37907;SDS011;23740;51.550;6.846;2022-11-20T11:46:35;9.32;;;7.00;;
37907;SDS011;23740;51.550;6.846;2022-11-20T11:49:11;8.60;;;7.00;;
37907;SDS011;23740;51.550;6.846;2022-11-20T11:51:41;10.23;;;7.07;;
37907;SDS011;23740;51.550;6.846;2022-11-20T11:54:16;9.00;;;6.82;;
37907;SDS011;23740;51.550;6.846;2022-11-20T11:56:44;10.63;;;6.97;;
37907;SDS011;23740;51.550;6.846;2022-11-20T11:59:12;9.05;;;6.55;;
37907;SDS011;23740;51.550;6.846;2022-11-20T12:01:50;10.57;;;6.90;;
37907;SDS011;23740;51.550;6.846;2022-11-20T12:10:00;7.95;;;5.85;;
37907;SDS011;23740;51.550;6.846;2022-11-20T12:12:29;8.23;;;6.55;;
37907;SDS011;23740;51.550;6.846;2022-11-20T12:15:11;10.73;;;7.30;;
37907;SDS011;23740;51.550;6.846;2022-11-20T12:17:38;10.75;;;6.60;;
37907;SDS011;23740;51.550;6.846;2022-11-20T12:20:05;9.20;;;6.22;;
37907;SDS011;23740;51.550;6.846;2022-11-20T12:22:46;11.07;;;7.00;;
37907;SDS011;23740;51.550;6.846;2022-11-20T12:25:19;9.05;;;6.35;;
37907;SDS011;23740;51.550;6.846;2022-11-20T12:30:14;8.82;;;6.60;;
37907;SDS011;23740;51.550;6.846;2022-11-20T12:37:48;10.30;;;7.43;;
37907;SDS011;23740;51.550;6.846;2022-11-20T12:51:30;8.60;;;7.10;;
37907;SDS011;23740;51.550;6.846;2022-11-20T13:05:18;11.48;;;7.60;;
37907;SDS011;23740;51.550;6.846;2022-11-20T13:07:46;13.05;;;7.55;;
37907;SDS011;23740;51.550;6.846;2022-11-20T13:18:47;10.25;;;7.82;;
37907;SDS011;23740;51.550;6.846;2022-11-20T13:21:22;11.57;;;7.65;;
37907;SDS011;23740;51.550;6.846;2022-11-20T13:26:43;13.95;;;8.10;;
37907;SDS011;23740;51.550;6.846;2022-11-20T13:29:11;10.98;;;8.68;;
37907;SDS011;23740;51.550;6.846;2022-11-20T13:31:39;12.77;;;8.05;;
37907;SDS011;23740;51.550;6.846;2022-11-20T13:34:10;12.80;;;8.05;;
37907;SDS011;23740;51.550;6.846;2022-11-20T13:36:38;10.57;;;7.70;;
37907;SDS011;23740;51.550;6.846;2022-11-20T13:39:23;9.32;;;7.57;;
37907;SDS011;23740;51.550;6.846;2022-11-20T13:41:56;10.10;;;7.55;;
37907;SDS011;23740;51.550;6.846;2022-11-20T13:46:49;12.60;;;8.00;;
37907;SDS011;23740;51.550;6.846;2022-11-20T13:49:23;10.65;;;8.10;;
37907;SDS011;23740;51.550;6.846;2022-11-20T13:51:51;10.98;;;8.05;;
37907;SDS011;23740;51.550;6.846;2022-11-20T13:54:44;9.48;;;7.90;;
37907;SDS011;23740;51.550;6.846;2022-11-20T13:59:57;10.60;;;8.13;;
37907;SDS011;23740;51.550;6.846;2022-11-20T14:02:26;10.32;;;7.78;;
37907;SDS011;23740;51.550;6.846;2022-11-20T14:04:54;10.07;;;7.93;;
37907;SDS011;23740;51.550;6.846;2022-11-20T14:07:24;11.38;;;7.55;;
37907;SDS011;23740;51.550;6.846;2022-11-20T14:09:55;12.23;;;7.68;;
37907;SDS011;23740;51.550;6.846;2022-11-20T14:12:23;10.50;;;7.65;;
37907;SDS011;23740;51.550;6.846;2022-11-20T14:14:53;9.20;;;7.70;;
37907;SDS011;23740;51.550;6.846;2022-11-20T14:19:50;9.15;;;7.15;;
37907;SDS011;23740;51.550;6.846;2022-11-20T14:22:17;12.15;;;7.55;;
37907;SDS011;23740;51.550;6.846;2022-11-20T14:24:45;9.88;;;7.72;;
37907;SDS011;23740;51.550;6.846;2022-11-20T14:27:12;10.50;;;8.00;;
37907;SDS011;23740;51.550;6.846;2022-11-20T14:29:43;8.52;;;7.00;;
37907;SDS011;23740;51.550;6.846;2022-11-20T14:32:10;9.70;;;7.50;;
37907;SDS011;23740;51.550;6.846;2022-11-20T14:34:37;10.50;;;7.85;;
37907;SDS011;23740;51.550;6.846;2022-11-20T14:37:05;9.88;;;7.70;;
37907;SDS011;23740;51.550;6.846;2022-11-20T14:39:35;9.52;;;7.65;;
37907;SDS011;23740;51.550;6.846;2022-11-20T14:42:03;9.48;;;7.30;;
37907;SDS011;23740;51.550;6.846;2022-11-20T14:44:35;8.73;;;7.57;;
37907;SDS011;23740;51.550;6.846;2022-11-20T14:47:02;10.10;;;8.32;;
37907;SDS011;23740;51.550;6.846;2022-11-20T14:49:29;10.30;;;7.60;;
37907;SDS011;23740;51.550;6.846;2022-11-20T14:51:59;10.38;;;8.45;;
37907;SDS011;23740;51.550;6.846;2022-11-20T14:54:26;10.55;;;7.75;;
37907;SDS011;23740;51.550;6.846;2022-11-20T14:56:57;10.85;;;8.40;;
37907;SDS011;23740;51.550;6.846;2022-11-20T14:59:25;12.98;;;7.82;;
37907;SDS011;23740;51.550;6.846;2022-11-20T15:02:02;12.25;;;8.55;;
37907;SDS011;23740;51.550;6.846;2022-11-20T15:04:29;12.18;;;9.82;;
37907;SDS011;23740;51.550;6.846;2022-11-20T15:06:56;10.45;;;8.52;;
37907;SDS011;23740;51.550;6.846;2022-11-20T15:09:23;10.47;;;8.07;;
37907;SDS011;23740;51.550;6.846;2022-11-20T15:11:53;11.38;;;8.93;;
37907;SDS011;23740;51.550;6.846;2022-11-20T15:16:55;16.27;;;8.55;;
37907;SDS011;23740;51.550;6.846;2022-11-20T15:19:21;10.07;;;9.05;;
37907;SDS011;23740;51.550;6.846;2022-11-20T15:21:48;11.68;;;9.15;;
37907;SDS011;23740;51.550;6.846;2022-11-20T15:24:14;10.57;;;8.85;;
37907;SDS011;23740;51.550;6.846;2022-11-20T15:26:39;11.52;;;9.13;;
37907;SDS011;23740;51.550;6.846;2022-11-20T15:29:07;10.02;;;8.95;;
37907;SDS011;23740;51.550;6.846;2022-11-20T15:31:35;11.65;;;9.85;;
37907;SDS011;23740;51.550;6.846;2022-11-20T15:34:01;12.63;;;9.60;;
37907;SDS011;23740;51.550;6.846;2022-11-20T15:36:26;11.93;;;9.75;;
37907;SDS011;23740;51.550;6.846;2022-11-20T15:38:52;10.20;;;8.88;;
37907;SDS011;23740;51.550;6.846;2022-11-20T15:41:17;11.45;;;9.82;;
37907;SDS011;23740;51.550;6.846;2022-11-20T15:43:42;11.52;;;10.32;;
37907;SDS011;23740;51.550;6.846;2022-11-20T15:46:12;11.50;;;9.90;;
37907;SDS011;23740;51.550;6.846;2022-11-20T15:48:39;11.30;;;10.10;;
37907;SDS011;23740;51.550;6.846;2022-11-20T15:53:35;12.10;;;10.80;;
37907;SDS011;23740;51.550;6.846;2022-11-20T15:56:01;11.57;;;10.48;;
37907;SDS011;23740;51.550;6.846;2022-11-20T15:58:26;17.75;;;11.25;;
37907;SDS011;23740;51.550;6.846;2022-11-20T16:00:52;15.45;;;11.45;;
37907;SDS011;23740;51.550;6.846;2022-11-20T16:03:17;11.70;;;10.32;;
37907;SDS011;23740;51.550;6.846;2022-11-20T16:05:43;11.73;;;10.52;;
37907;SDS011;23740;51.550;6.846;2022-11-20T16:08:09;11.95;;;10.75;;
37907;SDS011;23740;51.550;6.846;2022-11-20T16:10:34;11.88;;;10.80;;
37907;SDS011;23740;51.550;6.846;2022-11-20T16:13:00;11.52;;;10.43;;
37907;SDS011;23740;51.550;6.846;2022-11-20T16:15:45;12.20;;;11.00;;
37907;SDS011;23740;51.550;6.846;2022-11-20T16:18:18;15.25;;;11.48;;
37907;SDS011;23740;51.550;6.846;2022-11-20T16:20:45;13.60;;;12.23;;
37907;SDS011;23740;51.550;6.846;2022-11-20T16:23:12;13.82;;;12.32;;
37907;SDS011;23740;51.550;6.846;2022-11-20T16:25:38;14.35;;;13.05;;
37907;SDS011;23740;51.550;6.846;2022-11-20T16:28:03;14.15;;;12.73;;
37907;SDS011;23740;51.550;6.846;2022-11-20T16:30:30;14.00;;;12.65;;
37907;SDS011;23740;51.550;6.846;2022-11-20T16:32:56;14.43;;;13.10;;
37907;SDS011;23740;51.550;6.846;2022-11-20T16:35:22;17.15;;;15.60;;
37907;SDS011;23740;51.550;6.846;2022-11-20T16:37:47;16.70;;;15.20;;
37907;SDS011;23740;51.550;6.846;2022-11-20T16:40:12;17.67;;;15.88;;
37907;SDS011;23740;51.550;6.846;2022-11-20T16:42:38;17.05;;;15.65;;
37907;SDS011;23740;51.550;6.846;2022-11-20T16:45:04;18.00;;;16.48;;
37907;SDS011;23740;51.550;6.846;2022-11-20T16:47:33;18.27;;;16.67;;
37907;SDS011;23740;51.550;6.846;2022-11-20T16:49:59;18.38;;;16.88;;
37907;SDS011;23740;51.550;6.846;2022-11-20T16:52:25;18.60;;;16.80;;
37907;SDS011;23740;51.550;6.846;2022-11-20T16:54:51;20.23;;;18.33;;
37907;SDS011;23740;51.550;6.846;2022-11-20T16:57:16;20.50;;;18.80;;
37907;SDS011;23740;51.550;6.846;2022-11-20T16:59:41;20.02;;;18.30;;